sensor_id;sensor_type;location;lat;lon;timestamp;temperature;humidity
21759;DHT22;11041;50.854;20.580;2022-09-12T00:01:43;10.30;99.90
21759;DHT22;11041;50.854;20.580;2022-09-12T00:04:09;10.30;99.90
21759;DHT22;11041;50.854;20.580;2022-09-12T00:06:36;10.20;99.90
21759;DHT22;11041;50.854;20.580;2022-09-12T00:09:06;10.20;99.90
21759;DHT22;11041;50.854;20.580;2022-09-12T00:11:36;10.20;99.90
21759;DHT22;11041;50.854;20.580;2022-09-12T00:14:06;10.30;99.90
21759;DHT22;11041;50.854;20.580;2022-09-12T00:16:34;10.30;99.90
21759;DHT22;11041;50.854;20.580;2022-09-12T00:19:03;10.30;99.90
21759;DHT22;11041;50.854;20.580;2022-09-12T00:21:32;10.10;99.90
21759;DHT22;11041;50.854;20.580;2022-09-12T00:24:01;10.20;99.90
21759;DHT22;11041;50.854;20.580;2022-09-12T00:26:28;10.20;99.90
21759;DHT22;11041;50.854;20.580;2022-09-12T00:28:56;10.20;99.90
21759;DHT22;11041;50.854;20.580;2022-09-12T00:31:25;10.20;99.90
21759;DHT22;11041;50.854;20.580;2022-09-12T00:33:55;10.10;99.90
21759;DHT22;11041;50.854;20.580;2022-09-12T00:36:24;10.00;99.90
21759;DHT22;11041;50.854;20.580;2022-09-12T00:38:53;10.00;99.90
21759;DHT22;11041;50.854;20.580;2022-09-12T00:41:32;10.00;99.90
21759;DHT22;11041;50.854;20.580;2022-09-12T00:46:58;10.10;99.90
21759;DHT22;11041;50.854;20.580;2022-09-12T00:50:08;10.10;99.90
21759;DHT22;11041;50.854;20.580;2022-09-12T00:52:48;10.00;99.90
21759;DHT22;11041;50.854;20.580;2022-09-12T00:55:27;10.00;99.90
21759;DHT22;11041;50.854;20.580;2022-09-12T01:00:36;9.90;99.90
21759;DHT22;11041;50.854;20.580;2022-09-12T01:03:12;10.00;99.90
21759;DHT22;11041;50.854;20.580;2022-09-12T01:05:58;9.90;99.90
21759;DHT22;11041;50.854;20.580;2022-09-12T01:08:32;9.80;99.90
21759;DHT22;11041;50.854;20.580;2022-09-12T01:11:04;9.90;99.90
21759;DHT22;11041;50.854;20.580;2022-09-12T01:13:32;9.90;99.90
21759;DHT22;11041;50.854;20.580;2022-09-12T01:16:03;9.90;99.90
21759;DHT22;11041;50.854;20.580;2022-09-12T01:40:06;9.70;99.90
21759;DHT22;11041;50.854;20.580;2022-09-12T01:42:48;9.80;99.90
21759;DHT22;11041;50.854;20.580;2022-09-12T01:45:55;9.80;99.90
21759;DHT22;11041;50.854;20.580;2022-09-12T01:48:39;9.80;99.90
21759;DHT22;11041;50.854;20.580;2022-09-12T01:54:18;10.00;99.90
21759;DHT22;11041;50.854;20.580;2022-09-12T01:56:54;9.90;99.90
21759;DHT22;11041;50.854;20.580;2022-09-12T01:59:32;9.90;99.90
21759;DHT22;11041;50.854;20.580;2022-09-12T02:02:15;9.80;99.90
21759;DHT22;11041;50.854;20.580;2022-09-12T02:08:30;9.90;99.90
21759;DHT22;11041;50.854;20.580;2022-09-12T02:11:07;9.90;99.90
21759;DHT22;11041;50.854;20.580;2022-09-12T02:16:32;10.00;99.90
21759;DHT22;11041;50.854;20.580;2022-09-12T02:19:06;10.00;99.90
21759;DHT22;11041;50.854;20.580;2022-09-12T02:21:57;10.10;99.90
21759;DHT22;11041;50.854;20.580;2022-09-12T02:24:36;10.00;99.90
21759;DHT22;11041;50.854;20.580;2022-09-12T02:27:19;9.80;99.90
21759;DHT22;11041;50.854;20.580;2022-09-12T02:29:50;9.80;99.90
21759;DHT22;11041;50.854;20.580;2022-09-12T02:32:27;9.70;99.90
21759;DHT22;11041;50.854;20.580;2022-09-12T02:38:01;9.80;99.90
21759;DHT22;11041;50.854;20.580;2022-09-12T02:40:36;9.80;99.90
21759;DHT22;11041;50.854;20.580;2022-09-12T02:43:04;9.70;99.90
21759;DHT22;11041;50.854;20.580;2022-09-12T02:45:33;9.70;99.90
21759;DHT22;11041;50.854;20.580;2022-09-12T02:50:55;9.80;99.90
21759;DHT22;11041;50.854;20.580;2022-09-12T02:53:22;9.70;99.90
21759;DHT22;11041;50.854;20.580;2022-09-12T02:55:49;9.80;99.90
21759;DHT22;11041;50.854;20.580;2022-09-12T02:58:24;9.70;99.90
21759;DHT22;11041;50.854;20.580;2022-09-12T03:04:32;9.60;99.90
21759;DHT22;11041;50.854;20.580;2022-09-12T03:19:32;9.60;99.90
21759;DHT22;11041;50.854;20.580;2022-09-12T03:22:33;9.60;99.90
21759;DHT22;11041;50.854;20.580;2022-09-12T03:25:27;9.60;99.90
21759;DHT22;11041;50.854;20.580;2022-09-12T03:28:00;9.50;99.90
21759;DHT22;11041;50.854;20.580;2022-09-12T03:30:58;9.50;99.90
21759;DHT22;11041;50.854;20.580;2022-09-12T03:33:25;9.50;99.90
21759;DHT22;11041;50.854;20.580;2022-09-12T03:35:52;9.70;99.90
21759;DHT22;11041;50.854;20.580;2022-09-12T03:38:20;9.70;99.90
21759;DHT22;11041;50.854;20.580;2022-09-12T03:40:46;9.70;99.90
21759;DHT22;11041;50.854;20.580;2022-09-12T03:43:13;9.70;99.90
21759;DHT22;11041;50.854;20.580;2022-09-12T03:45:39;9.80;99.90
21759;DHT22;11041;50.854;20.580;2022-09-12T03:48:06;9.90;99.90
21759;DHT22;11041;50.854;20.580;2022-09-12T03:50:34;10.00;99.90
21759;DHT22;11041;50.854;20.580;2022-09-12T03:53:02;10.10;99.90
21759;DHT22;11041;50.854;20.580;2022-09-12T03:55:29;10.00;99.90
21759;DHT22;11041;50.854;20.580;2022-09-12T03:57:56;10.00;99.90
21759;DHT22;11041;50.854;20.580;2022-09-12T04:00:22;10.10;99.90
21759;DHT22;11041;50.854;20.580;2022-09-12T04:02:53;10.10;99.90
21759;DHT22;11041;50.854;20.580;2022-09-12T04:05:23;10.00;99.90
21759;DHT22;11041;50.854;20.580;2022-09-12T04:07:51;10.10;99.90
21759;DHT22;11041;50.854;20.580;2022-09-12T04:10:17;10.10;99.90
21759;DHT22;11041;50.854;20.580;2022-09-12T04:12:44;10.10;99.90
21759;DHT22;11041;50.854;20.580;2022-09-12T04:15:11;10.10;99.90
21759;DHT22;11041;50.854;20.580;2022-09-12T04:17:37;10.00;99.90
21759;DHT22;11041;50.854;20.580;2022-09-12T04:20:04;10.10;99.90
21759;DHT22;11041;50.854;20.580;2022-09-12T04:22:32;10.10;99.90
21759;DHT22;11041;50.854;20.580;2022-09-12T04:24:58;10.10;99.90
21759;DHT22;11041;50.854;20.580;2022-09-12T04:27:25;10.00;99.90
21759;DHT22;11041;50.854;20.580;2022-09-12T04:29:51;10.10;99.90
21759;DHT22;11041;50.854;20.580;2022-09-12T04:32:20;10.10;99.90
21759;DHT22;11041;50.854;20.580;2022-09-12T04:34:47;10.10;99.90
21759;DHT22;11041;50.854;20.580;2022-09-12T04:37:14;10.10;99.90
21759;DHT22;11041;50.854;20.580;2022-09-12T04:39:41;10.10;99.90
21759;DHT22;11041;50.854;20.580;2022-09-12T04:42:08;10.10;99.90
21759;DHT22;11041;50.854;20.580;2022-09-12T04:44:34;10.10;99.90
21759;DHT22;11041;50.854;20.580;2022-09-12T04:47:01;10.20;99.90
21759;DHT22;11041;50.854;20.580;2022-09-12T04:49:28;10.20;99.90
21759;DHT22;11041;50.854;20.580;2022-09-12T04:51:54;10.30;99.90
21759;DHT22;11041;50.854;20.580;2022-09-12T04:54:21;10.30;99.90
21759;DHT22;11041;50.854;20.580;2022-09-12T04:56:48;10.40;99.90
21759;DHT22;11041;50.854;20.580;2022-09-12T04:59:18;10.30;99.90
21759;DHT22;11041;50.854;20.580;2022-09-12T05:01:46;10.30;99.90
21759;DHT22;11041;50.854;20.580;2022-09-12T05:04:13;10.40;99.90
21759;DHT22;11041;50.854;20.580;2022-09-12T05:06:41;10.40;99.90
21759;DHT22;11041;50.854;20.580;2022-09-12T05:09:10;10.40;99.90
21759;DHT22;11041;50.854;20.580;2022-09-12T05:11:40;10.40;99.90
21759;DHT22;11041;50.854;20.580;2022-09-12T05:14:09;10.40;99.90
21759;DHT22;11041;50.854;20.580;2022-09-12T05:16:36;10.40;99.90
21759;DHT22;11041;50.854;20.580;2022-09-12T05:19:03;10.40;99.90
21759;DHT22;11041;50.854;20.580;2022-09-12T05:21:30;10.50;99.90
21759;DHT22;11041;50.854;20.580;2022-09-12T05:23:57;10.50;99.90
21759;DHT22;11041;50.854;20.580;2022-09-12T05:26:27;10.50;99.90
21759;DHT22;11041;50.854;20.580;2022-09-12T05:28:54;10.50;99.90
21759;DHT22;11041;50.854;20.580;2022-09-12T05:31:25;10.50;99.90
21759;DHT22;11041;50.854;20.580;2022-09-12T05:33:54;10.50;99.90
21759;DHT22;11041;50.854;20.580;2022-09-12T05:36:27;10.50;99.90
21759;DHT22;11041;50.854;20.580;2022-09-12T05:38:55;10.40;99.90
21759;DHT22;11041;50.854;20.580;2022-09-12T05:41:24;10.50;99.90
21759;DHT22;11041;50.854;20.580;2022-09-12T05:43:56;10.60;99.90
21759;DHT22;11041;50.854;20.580;2022-09-12T05:46:26;10.60;99.90
21759;DHT22;11041;50.854;20.580;2022-09-12T05:48:56;10.60;99.90
21759;DHT22;11041;50.854;20.580;2022-09-12T05:51:28;10.60;99.90
21759;DHT22;11041;50.854;20.580;2022-09-12T05:54:01;10.70;99.90
21759;DHT22;11041;50.854;20.580;2022-09-12T05:56:33;10.80;99.90
21759;DHT22;11041;50.854;20.580;2022-09-12T05:59:07;10.80;99.90
21759;DHT22;11041;50.854;20.580;2022-09-12T06:01:37;10.80;99.90
21759;DHT22;11041;50.854;20.580;2022-09-12T06:04:06;10.90;99.90
21759;DHT22;11041;50.854;20.580;2022-09-12T06:06:42;10.90;99.90
21759;DHT22;11041;50.854;20.580;2022-09-12T06:09:14;11.00;99.90
21759;DHT22;11041;50.854;20.580;2022-09-12T06:11:42;11.10;99.90
21759;DHT22;11041;50.854;20.580;2022-09-12T06:14:11;11.10;99.90
21759;DHT22;11041;50.854;20.580;2022-09-12T06:16:40;11.10;99.90
21759;DHT22;11041;50.854;20.580;2022-09-12T06:19:12;11.10;99.90
21759;DHT22;11041;50.854;20.580;2022-09-12T06:21:41;12.90;99.90
21759;DHT22;11041;50.854;20.580;2022-09-12T06:24:09;11.10;99.90
21759;DHT22;11041;50.854;20.580;2022-09-12T06:26:35;11.10;99.90
21759;DHT22;11041;50.854;20.580;2022-09-12T06:29:02;11.20;99.90
21759;DHT22;11041;50.854;20.580;2022-09-12T06:31:35;11.20;99.90
21759;DHT22;11041;50.854;20.580;2022-09-12T06:34:06;11.20;99.90
21759;DHT22;11041;50.854;20.580;2022-09-12T06:36:43;11.30;99.90
21759;DHT22;11041;50.854;20.580;2022-09-12T06:39:18;11.30;99.90
21759;DHT22;11041;50.854;20.580;2022-09-12T06:41:48;11.30;99.90
21759;DHT22;11041;50.854;20.580;2022-09-12T06:44:18;11.30;99.90
21759;DHT22;11041;50.854;20.580;2022-09-12T06:46:47;11.50;99.90
21759;DHT22;11041;50.854;20.580;2022-09-12T06:49:14;11.40;99.90
21759;DHT22;11041;50.854;20.580;2022-09-12T06:51:42;11.60;99.90
21759;DHT22;11041;50.854;20.580;2022-09-12T06:54:12;11.50;99.90
21759;DHT22;11041;50.854;20.580;2022-09-12T06:56:40;11.60;99.90
21759;DHT22;11041;50.854;20.580;2022-09-12T06:59:07;11.60;99.90
21759;DHT22;11041;50.854;20.580;2022-09-12T07:01:33;11.60;99.90
21759;DHT22;11041;50.854;20.580;2022-09-12T07:04:02;11.70;99.90
21759;DHT22;11041;50.854;20.580;2022-09-12T07:06:38;11.80;99.90
21759;DHT22;11041;50.854;20.580;2022-09-12T07:09:09;11.90;99.90
21759;DHT22;11041;50.854;20.580;2022-09-12T07:11:39;11.90;99.90
21759;DHT22;11041;50.854;20.580;2022-09-12T07:14:08;11.90;99.90
21759;DHT22;11041;50.854;20.580;2022-09-12T07:16:37;11.90;99.90
21759;DHT22;11041;50.854;20.580;2022-09-12T07:19:05;11.90;99.90
21759;DHT22;11041;50.854;20.580;2022-09-12T07:21:33;12.00;99.90
21759;DHT22;11041;50.854;20.580;2022-09-12T07:24:05;12.20;99.90
21759;DHT22;11041;50.854;20.580;2022-09-12T07:26:34;12.20;99.90
21759;DHT22;11041;50.854;20.580;2022-09-12T07:29:01;12.30;99.90
21759;DHT22;11041;50.854;20.580;2022-09-12T07:31:29;12.50;99.90
21759;DHT22;11041;50.854;20.580;2022-09-12T07:33:56;12.50;99.90
21759;DHT22;11041;50.854;20.580;2022-09-12T07:36:23;12.60;99.90
21759;DHT22;11041;50.854;20.580;2022-09-12T07:38:55;12.50;99.90
21759;DHT22;11041;50.854;20.580;2022-09-12T07:41:28;12.50;99.90
21759;DHT22;11041;50.854;20.580;2022-09-12T07:43:58;12.50;99.90
21759;DHT22;11041;50.854;20.580;2022-09-12T07:46:29;12.70;99.90
21759;DHT22;11041;50.854;20.580;2022-09-12T07:48:58;12.70;99.90
21759;DHT22;11041;50.854;20.580;2022-09-12T07:51:28;12.80;99.90
21759;DHT22;11041;50.854;20.580;2022-09-12T07:53:55;12.70;99.90
21759;DHT22;11041;50.854;20.580;2022-09-12T07:56:23;12.80;99.90
21759;DHT22;11041;50.854;20.580;2022-09-12T07:58:51;12.90;99.90
21759;DHT22;11041;50.854;20.580;2022-09-12T08:01:19;12.90;99.90
21759;DHT22;11041;50.854;20.580;2022-09-12T08:03:51;12.90;99.90
21759;DHT22;11041;50.854;20.580;2022-09-12T08:06:22;13.00;99.90
21759;DHT22;11041;50.854;20.580;2022-09-12T08:08:49;13.10;99.90
21759;DHT22;11041;50.854;20.580;2022-09-12T08:11:18;13.20;99.90
21759;DHT22;11041;50.854;20.580;2022-09-12T08:13:47;13.30;99.90
21759;DHT22;11041;50.854;20.580;2022-09-12T08:16:20;13.30;99.90
21759;DHT22;11041;50.854;20.580;2022-09-12T08:18:49;13.40;99.90
21759;DHT22;11041;50.854;20.580;2022-09-12T08:21:18;13.60;99.90
21759;DHT22;11041;50.854;20.580;2022-09-12T08:23:50;13.70;99.90
21759;DHT22;11041;50.854;20.580;2022-09-12T08:26:19;13.90;99.90
21759;DHT22;11041;50.854;20.580;2022-09-12T08:28:46;13.90;99.90
21759;DHT22;11041;50.854;20.580;2022-09-12T08:31:15;14.00;99.90
21759;DHT22;11041;50.854;20.580;2022-09-12T08:33:44;13.90;99.90
21759;DHT22;11041;50.854;20.580;2022-09-12T08:36:16;14.00;99.90
21759;DHT22;11041;50.854;20.580;2022-09-12T08:38:48;14.10;99.90
21759;DHT22;11041;50.854;20.580;2022-09-12T08:47:02;14.10;99.90
21759;DHT22;11041;50.854;20.580;2022-09-12T08:55:29;14.20;99.90
21759;DHT22;11041;50.854;20.580;2022-09-12T08:58:00;14.10;99.90
21759;DHT22;11041;50.854;20.580;2022-09-12T09:09:17;14.30;99.90
21759;DHT22;11041;50.854;20.580;2022-09-12T09:18:17;14.50;99.90
21759;DHT22;11041;50.854;20.580;2022-09-12T09:20:52;14.50;99.90
21759;DHT22;11041;50.854;20.580;2022-09-12T09:23:30;14.50;99.90
21759;DHT22;11041;50.854;20.580;2022-09-12T09:26:37;14.50;99.90
21759;DHT22;11041;50.854;20.580;2022-09-12T09:29:05;14.50;99.90
21759;DHT22;11041;50.854;20.580;2022-09-12T09:31:41;14.60;99.90
21759;DHT22;11041;50.854;20.580;2022-09-12T09:34:23;14.50;99.90
21759;DHT22;11041;50.854;20.580;2022-09-12T09:37:05;14.50;99.90
21759;DHT22;11041;50.854;20.580;2022-09-12T09:45:25;14.30;99.90
21759;DHT22;11041;50.854;20.580;2022-09-12T09:50:39;14.20;99.90
21759;DHT22;11041;50.854;20.580;2022-09-12T09:53:15;14.20;99.90
21759;DHT22;11041;50.854;20.580;2022-09-12T09:55:55;14.20;99.90
21759;DHT22;11041;50.854;20.580;2022-09-12T09:58:32;14.30;99.90
21759;DHT22;11041;50.854;20.580;2022-09-12T10:01:10;14.30;99.90
21759;DHT22;11041;50.854;20.580;2022-09-12T10:03:53;14.40;99.90
21759;DHT22;11041;50.854;20.580;2022-09-12T10:06:31;14.50;99.90
21759;DHT22;11041;50.854;20.580;2022-09-12T10:09:18;14.60;99.90
21759;DHT22;11041;50.854;20.580;2022-09-12T10:11:49;14.60;99.90
21759;DHT22;11041;50.854;20.580;2022-09-12T10:14:39;14.80;99.90
21759;DHT22;11041;50.854;20.580;2022-09-12T10:17:27;14.90;99.90
21759;DHT22;11041;50.854;20.580;2022-09-12T10:20:36;14.70;99.90
21759;DHT22;11041;50.854;20.580;2022-09-12T10:23:21;14.60;99.90
21759;DHT22;11041;50.854;20.580;2022-09-12T10:25:56;14.60;99.90
21759;DHT22;11041;50.854;20.580;2022-09-12T10:28:39;14.60;99.90
21759;DHT22;11041;50.854;20.580;2022-09-12T10:31:12;14.70;99.90
21759;DHT22;11041;50.854;20.580;2022-09-12T10:33:48;14.80;99.90
21759;DHT22;11041;50.854;20.580;2022-09-12T10:36:20;14.80;99.90
21759;DHT22;11041;50.854;20.580;2022-09-12T10:38:57;14.80;99.90
21759;DHT22;11041;50.854;20.580;2022-09-12T10:41:33;14.80;99.90
21759;DHT22;11041;50.854;20.580;2022-09-12T10:44:17;14.70;99.90
21759;DHT22;11041;50.854;20.580;2022-09-12T10:46:52;14.80;99.90
21759;DHT22;11041;50.854;20.580;2022-09-12T10:49:38;14.90;99.90
21759;DHT22;11041;50.854;20.580;2022-09-12T10:52:23;15.00;99.90
21759;DHT22;11041;50.854;20.580;2022-09-12T10:54:50;15.10;99.90
21759;DHT22;11041;50.854;20.580;2022-09-12T10:57:31;15.10;99.90
21759;DHT22;11041;50.854;20.580;2022-09-12T11:00:14;15.30;99.90
21759;DHT22;11041;50.854;20.580;2022-09-12T11:02:58;15.40;99.90
21759;DHT22;11041;50.854;20.580;2022-09-12T11:05:56;15.40;99.90
21759;DHT22;11041;50.854;20.580;2022-09-12T11:24:22;15.50;99.90
21759;DHT22;11041;50.854;20.580;2022-09-12T11:29:49;15.70;99.90
21759;DHT22;11041;50.854;20.580;2022-09-12T11:38:02;15.70;99.90
21759;DHT22;11041;50.854;20.580;2022-09-12T11:40:54;15.80;99.90
21759;DHT22;11041;50.854;20.580;2022-09-12T11:43:48;15.80;99.90
21759;DHT22;11041;50.854;20.580;2022-09-12T11:49:12;15.80;99.90
21759;DHT22;11041;50.854;20.580;2022-09-12T11:59:59;15.90;99.90
21759;DHT22;11041;50.854;20.580;2022-09-12T12:02:40;16.00;99.90
21759;DHT22;11041;50.854;20.580;2022-09-12T12:05:25;16.10;99.90
21759;DHT22;11041;50.854;20.580;2022-09-12T12:08:01;16.10;99.90
21759;DHT22;11041;50.854;20.580;2022-09-12T12:10:37;16.10;99.90
21759;DHT22;11041;50.854;20.580;2022-09-12T12:13:22;16.20;99.90
21759;DHT22;11041;50.854;20.580;2022-09-12T12:15:58;16.10;99.90
21759;DHT22;11041;50.854;20.580;2022-09-12T12:18:30;16.10;99.90
21759;DHT22;11041;50.854;20.580;2022-09-12T12:24:20;16.00;99.90
21759;DHT22;11041;50.854;20.580;2022-09-12T12:26:53;16.00;99.90
21759;DHT22;11041;50.854;20.580;2022-09-12T12:29:42;16.00;99.90
21759;DHT22;11041;50.854;20.580;2022-09-12T12:34:42;16.00;99.90
21759;DHT22;11041;50.854;20.580;2022-09-12T12:40:07;16.00;99.90
21759;DHT22;11041;50.854;20.580;2022-09-12T12:48:00;16.30;99.90
21759;DHT22;11041;50.854;20.580;2022-09-12T12:50:35;16.50;99.90
21759;DHT22;11041;50.854;20.580;2022-09-12T12:53:16;16.60;99.90
21759;DHT22;11041;50.854;20.580;2022-09-12T12:55:54;16.50;99.90
21759;DHT22;11041;50.854;20.580;2022-09-12T12:58:37;16.30;99.90
21759;DHT22;11041;50.854;20.580;2022-09-12T13:01:18;16.30;99.90
21759;DHT22;11041;50.854;20.580;2022-09-12T13:04:16;16.30;99.90
21759;DHT22;11041;50.854;20.580;2022-09-12T13:06:54;16.30;99.90
21759;DHT22;11041;50.854;20.580;2022-09-12T13:09:43;16.40;99.90
21759;DHT22;11041;50.854;20.580;2022-09-12T13:12:20;16.70;99.90
21759;DHT22;11041;50.854;20.580;2022-09-12T13:14:48;16.70;99.90
21759;DHT22;11041;50.854;20.580;2022-09-12T13:17:31;16.70;99.90
21759;DHT22;11041;50.854;20.580;2022-09-12T13:22:44;16.90;99.90
21759;DHT22;11041;50.854;20.580;2022-09-12T13:30:39;17.80;99.90
21759;DHT22;11041;50.854;20.580;2022-09-12T13:33:23;17.80;99.90
21759;DHT22;11041;50.854;20.580;2022-09-12T13:36:51;17.70;99.90
21759;DHT22;11041;50.854;20.580;2022-09-12T13:39:26;17.80;99.90
21759;DHT22;11041;50.854;20.580;2022-09-12T13:45:23;17.80;99.90
21759;DHT22;11041;50.854;20.580;2022-09-12T13:48:00;17.90;99.90
21759;DHT22;11041;50.854;20.580;2022-09-12T13:53:46;17.60;99.90
21759;DHT22;11041;50.854;20.580;2022-09-12T13:56:18;17.50;99.90
21759;DHT22;11041;50.854;20.580;2022-09-12T13:58:54;17.60;99.90
21759;DHT22;11041;50.854;20.580;2022-09-12T14:01:49;17.70;99.90
21759;DHT22;11041;50.854;20.580;2022-09-12T14:04:21;17.60;99.90
21759;DHT22;11041;50.854;20.580;2022-09-12T14:07:16;17.60;99.90
21759;DHT22;11041;50.854;20.580;2022-09-12T14:09:53;17.80;99.90
21759;DHT22;11041;50.854;20.580;2022-09-12T14:12:28;17.90;99.90
21759;DHT22;11041;50.854;20.580;2022-09-12T14:14:57;17.70;99.90
21759;DHT22;11041;50.854;20.580;2022-09-12T14:17:37;17.70;99.90
21759;DHT22;11041;50.854;20.580;2022-09-12T14:20:07;17.70;99.90
21759;DHT22;11041;50.854;20.580;2022-09-12T14:22:39;17.60;99.90
21759;DHT22;11041;50.854;20.580;2022-09-12T14:25:14;17.60;99.90
21759;DHT22;11041;50.854;20.580;2022-09-12T14:27:45;17.60;99.90
21759;DHT22;11041;50.854;20.580;2022-09-12T14:30:35;17.50;99.90
21759;DHT22;11041;50.854;20.580;2022-09-12T14:38:23;17.20;99.90
21759;DHT22;11041;50.854;20.580;2022-09-12T14:41:07;17.00;99.90
21759;DHT22;11041;50.854;20.580;2022-09-12T14:43:41;17.00;99.90
21759;DHT22;11041;50.854;20.580;2022-09-12T14:46:37;16.90;99.90
21759;DHT22;11041;50.854;20.580;2022-09-12T14:49:12;16.80;99.90
21759;DHT22;11041;50.854;20.580;2022-09-12T14:51:54;16.80;99.90
21759;DHT22;11041;50.854;20.580;2022-09-12T14:57:16;16.70;
21759;DHT22;11041;50.854;20.580;2022-09-12T15:02:39;16.70;99.90
21759;DHT22;11041;50.854;20.580;2022-09-12T15:07:42;16.70;99.90
21759;DHT22;11041;50.854;20.580;2022-09-12T15:10:36;16.70;99.90
21759;DHT22;11041;50.854;20.580;2022-09-12T15:15:41;16.60;99.90
21759;DHT22;11041;50.854;20.580;2022-09-12T15:18:10;16.60;99.90
21759;DHT22;11041;50.854;20.580;2022-09-12T15:20:42;16.80;99.90
21759;DHT22;11041;50.854;20.580;2022-09-12T15:23:30;16.80;99.90
21759;DHT22;11041;50.854;20.580;2022-09-12T15:26:05;16.80;99.90
21759;DHT22;11041;50.854;20.580;2022-09-12T15:28:33;16.80;99.90
21759;DHT22;11041;50.854;20.580;2022-09-12T15:31:12;16.70;99.90
21759;DHT22;11041;50.854;20.580;2022-09-12T15:33:47;16.70;99.90
21759;DHT22;11041;50.854;20.580;2022-09-12T15:36:18;16.70;99.90
21759;DHT22;11041;50.854;20.580;2022-09-12T15:38:46;16.70;99.90
21759;DHT22;11041;50.854;20.580;2022-09-12T15:41:19;16.70;99.90
21759;DHT22;11041;50.854;20.580;2022-09-12T15:43:48;16.60;99.90
21759;DHT22;11041;50.854;20.580;2022-09-12T15:46:16;16.50;99.90
21759;DHT22;11041;50.854;20.580;2022-09-12T15:48:47;16.50;99.90
21759;DHT22;11041;50.854;20.580;2022-09-12T15:51:18;16.50;99.90
21759;DHT22;11041;50.854;20.580;2022-09-12T15:53:50;16.40;99.90
21759;DHT22;11041;50.854;20.580;2022-09-12T15:56:18;16.40;99.90
21759;DHT22;11041;50.854;20.580;2022-09-12T15:58:46;16.40;99.90
21759;DHT22;11041;50.854;20.580;2022-09-12T16:01:15;16.40;99.90
21759;DHT22;11041;50.854;20.580;2022-09-12T16:04:27;16.30;99.90
21759;DHT22;11041;50.854;20.580;2022-09-12T16:06:58;16.30;99.90
21759;DHT22;11041;50.854;20.580;2022-09-12T16:09:25;16.30;99.90
21759;DHT22;11041;50.854;20.580;2022-09-12T16:12:05;16.30;99.90
21759;DHT22;11041;50.854;20.580;2022-09-12T16:14:32;16.20;99.90
21759;DHT22;11041;50.854;20.580;2022-09-12T16:17:01;16.20;99.90
21759;DHT22;11041;50.854;20.580;2022-09-12T16:19:32;16.10;99.90
21759;DHT22;11041;50.854;20.580;2022-09-12T16:22:00;16.20;99.90
21759;DHT22;11041;50.854;20.580;2022-09-12T16:25:22;16.00;99.90
21759;DHT22;11041;50.854;20.580;2022-09-12T16:27:54;15.70;99.90
21759;DHT22;11041;50.854;20.580;2022-09-12T16:30:20;15.90;99.90
21759;DHT22;11041;50.854;20.580;2022-09-12T16:32:50;15.50;99.90
21759;DHT22;11041;50.854;20.580;2022-09-12T16:35:17;15.20;99.90
21759;DHT22;11041;50.854;20.580;2022-09-12T16:37:44;15.10;99.90
21759;DHT22;11041;50.854;20.580;2022-09-12T16:40:10;15.10;99.90
21759;DHT22;11041;50.854;20.580;2022-09-12T16:42:38;14.80;99.90
21759;DHT22;11041;50.854;20.580;2022-09-12T16:45:04;14.70;99.90
21759;DHT22;11041;50.854;20.580;2022-09-12T16:47:32;14.70;99.90
21759;DHT22;11041;50.854;20.580;2022-09-12T16:49:58;14.60;99.90
21759;DHT22;11041;50.854;20.580;2022-09-12T16:52:25;14.60;99.90
21759;DHT22;11041;50.854;20.580;2022-09-12T16:54:51;14.40;99.90
21759;DHT22;11041;50.854;20.580;2022-09-12T16:57:18;14.10;99.90
21759;DHT22;11041;50.854;20.580;2022-09-12T16:59:45;14.10;99.90
21759;DHT22;11041;50.854;20.580;2022-09-12T17:02:13;14.10;99.90
21759;DHT22;11041;50.854;20.580;2022-09-12T17:04:41;14.00;99.90
21759;DHT22;11041;50.854;20.580;2022-09-12T17:07:08;13.90;99.90
21759;DHT22;11041;50.854;20.580;2022-09-12T17:09:35;13.80;99.90
21759;DHT22;11041;50.854;20.580;2022-09-12T17:12:02;13.50;99.90
21759;DHT22;11041;50.854;20.580;2022-09-12T17:14:29;13.10;99.90
21759;DHT22;11041;50.854;20.580;2022-09-12T17:16:55;13.20;99.90
21759;DHT22;11041;50.854;20.580;2022-09-12T17:19:24;13.20;99.90
21759;DHT22;11041;50.854;20.580;2022-09-12T17:21:54;12.80;99.90
21759;DHT22;11041;50.854;20.580;2022-09-12T17:24:22;12.80;99.90
21759;DHT22;11041;50.854;20.580;2022-09-12T17:26:50;12.70;99.90
21759;DHT22;11041;50.854;20.580;2022-09-12T17:29:18;12.70;99.90
21759;DHT22;11041;50.854;20.580;2022-09-12T17:31:45;12.60;99.90
21759;DHT22;11041;50.854;20.580;2022-09-12T17:34:13;12.50;99.90
21759;DHT22;11041;50.854;20.580;2022-09-12T17:36:42;12.30;99.90
21759;DHT22;11041;50.854;20.580;2022-09-12T17:39:10;12.00;99.90
21759;DHT22;11041;50.854;20.580;2022-09-12T17:41:38;11.80;99.90
21759;DHT22;11041;50.854;20.580;2022-09-12T17:44:13;11.60;99.90
21759;DHT22;11041;50.854;20.580;2022-09-12T17:46:40;11.60;99.90
21759;DHT22;11041;50.854;20.580;2022-09-12T17:49:11;11.40;99.90
21759;DHT22;11041;50.854;20.580;2022-09-12T17:51:42;11.40;99.90
21759;DHT22;11041;50.854;20.580;2022-09-12T17:54:11;11.50;99.90
21759;DHT22;11041;50.854;20.580;2022-09-12T17:56:41;11.30;99.90
21759;DHT22;11041;50.854;20.580;2022-09-12T17:59:14;11.30;99.90
21759;DHT22;11041;50.854;20.580;2022-09-12T18:01:43;11.30;99.90
21759;DHT22;11041;50.854;20.580;2022-09-12T18:04:28;11.30;99.90
21759;DHT22;11041;50.854;20.580;2022-09-12T18:06:55;11.20;99.90
21759;DHT22;11041;50.854;20.580;2022-09-12T18:09:23;11.10;99.90
21759;DHT22;11041;50.854;20.580;2022-09-12T18:11:53;11.10;99.90
21759;DHT22;11041;50.854;20.580;2022-09-12T18:14:20;10.90;99.90
21759;DHT22;11041;50.854;20.580;2022-09-12T18:16:47;10.90;99.90
21759;DHT22;11041;50.854;20.580;2022-09-12T18:19:15;10.80;99.90
21759;DHT22;11041;50.854;20.580;2022-09-12T18:21:42;10.70;99.90
21759;DHT22;11041;50.854;20.580;2022-09-12T18:24:10;10.90;99.90
21759;DHT22;11041;50.854;20.580;2022-09-12T18:26:37;10.80;99.90
21759;DHT22;11041;50.854;20.580;2022-09-12T18:29:05;10.70;99.90
21759;DHT22;11041;50.854;20.580;2022-09-12T18:31:33;10.70;99.90
21759;DHT22;11041;50.854;20.580;2022-09-12T18:34:01;10.70;99.90
21759;DHT22;11041;50.854;20.580;2022-09-12T18:36:28;10.50;99.90
21759;DHT22;11041;50.854;20.580;2022-09-12T18:38:58;10.50;99.90
21759;DHT22;11041;50.854;20.580;2022-09-12T18:41:27;10.50;99.90
21759;DHT22;11041;50.854;20.580;2022-09-12T18:43:56;10.50;99.90
21759;DHT22;11041;50.854;20.580;2022-09-12T18:46:26;10.50;99.90
21759;DHT22;11041;50.854;20.580;2022-09-12T18:49:14;10.30;99.90